sensor_id;sensor_type;location;lat;lon;timestamp;P1;durP1;ratioP1;P2;durP2;ratioP2
11653;SDS011;5883;48.818;9.114;2023-08-12T00:02:13;5.10;;;3.70;;
11653;SDS011;5883;48.818;9.114;2023-08-12T00:04:59;5.15;;;3.20;;
11653;SDS011;5883;48.818;9.114;2023-08-12T00:07:48;5.10;;;3.00;;
11653;SDS011;5883;48.818;9.114;2023-08-12T00:10:33;7.70;;;3.30;;
11653;SDS011;5883;48.818;9.114;2023-08-12T00:13:20;4.30;;;3.90;;
11653;SDS011;5883;48.818;9.114;2023-08-12T00:16:05;6.13;;;3.80;;
11653;SDS011;5883;48.818;9.114;2023-08-12T00:18:49;5.13;;;4.00;;
11653;SDS011;5883;48.818;9.114;2023-08-12T00:21:35;5.20;;;3.58;;
11653;SDS011;5883;48.818;9.114;2023-08-12T00:24:22;4.32;;;3.75;;
11653;SDS011;5883;48.818;9.114;2023-08-12T00:27:09;5.38;;;4.00;;
11653;SDS011;5883;48.818;9.114;2023-08-12T00:29:54;4.82;;;3.92;;
11653;SDS011;5883;48.818;9.114;2023-08-12T00:32:39;6.20;;;3.55;;
11653;SDS011;5883;48.818;9.114;2023-08-12T00:35:24;5.07;;;3.50;;
11653;SDS011;5883;48.818;9.114;2023-08-12T00:38:09;4.53;;;3.83;;
11653;SDS011;5883;48.818;9.114;2023-08-12T00:40:55;4.75;;;3.95;;
11653;SDS011;5883;48.818;9.114;2023-08-12T00:43:42;4.47;;;4.00;;
11653;SDS011;5883;48.818;9.114;2023-08-12T00:46:28;6.47;;;3.88;;
11653;SDS011;5883;48.818;9.114;2023-08-12T00:49:13;6.20;;;3.63;;
11653;SDS011;5883;48.818;9.114;2023-08-12T00:52:03;5.13;;;4.00;;
11653;SDS011;5883;48.818;9.114;2023-08-12T00:54:50;5.90;;;3.78;;
11653;SDS011;5883;48.818;9.114;2023-08-12T00:57:37;5.93;;;4.13;;
11653;SDS011;5883;48.818;9.114;2023-08-12T01:00:36;5.00;;;3.70;;
11653;SDS011;5883;48.818;9.114;2023-08-12T01:03:21;5.65;;;3.90;;
11653;SDS011;5883;48.818;9.114;2023-08-12T01:06:06;4.68;;;3.85;;
11653;SDS011;5883;48.818;9.114;2023-08-12T01:08:52;6.03;;;4.30;;
11653;SDS011;5883;48.818;9.114;2023-08-12T01:11:39;5.50;;;3.83;;
11653;SDS011;5883;48.818;9.114;2023-08-12T01:14:27;4.00;;;3.60;;
11653;SDS011;5883;48.818;9.114;2023-08-12T01:17:14;4.22;;;3.67;;
11653;SDS011;5883;48.818;9.114;2023-08-12T01:20:00;3.78;;;3.30;;
11653;SDS011;5883;48.818;9.114;2023-08-12T01:22:52;4.00;;;3.38;;
11653;SDS011;5883;48.818;9.114;2023-08-12T01:25:43;4.13;;;3.70;;
11653;SDS011;5883;48.818;9.114;2023-08-12T01:28:28;4.70;;;3.70;;
11653;SDS011;5883;48.818;9.114;2023-08-12T01:31:15;4.10;;;3.70;;
11653;SDS011;5883;48.818;9.114;2023-08-12T01:34:04;4.72;;;3.83;;
11653;SDS011;5883;48.818;9.114;2023-08-12T01:36:54;3.80;;;3.28;;
11653;SDS011;5883;48.818;9.114;2023-08-12T01:39:41;4.28;;;3.67;;
11653;SDS011;5883;48.818;9.114;2023-08-12T01:42:29;6.95;;;3.70;;
11653;SDS011;5883;48.818;9.114;2023-08-12T01:45:15;4.93;;;4.03;;
11653;SDS011;5883;48.818;9.114;2023-08-12T01:48:00;3.97;;;3.05;;
11653;SDS011;5883;48.818;9.114;2023-08-12T01:50:45;6.45;;;3.58;;
11653;SDS011;5883;48.818;9.114;2023-08-12T01:53:31;4.72;;;3.75;;
11653;SDS011;5883;48.818;9.114;2023-08-12T01:56:17;4.82;;;3.50;;
11653;SDS011;5883;48.818;9.114;2023-08-12T01:59:06;3.88;;;3.40;;
11653;SDS011;5883;48.818;9.114;2023-08-12T02:01:51;10.55;;;3.88;;
11653;SDS011;5883;48.818;9.114;2023-08-12T02:04:39;3.92;;;3.53;;
11653;SDS011;5883;48.818;9.114;2023-08-12T02:07:26;4.25;;;3.50;;
11653;SDS011;5883;48.818;9.114;2023-08-12T02:10:12;3.50;;;3.20;;
11653;SDS011;5883;48.818;9.114;2023-08-12T02:12:58;5.68;;;4.07;;
11653;SDS011;5883;48.818;9.114;2023-08-12T02:15:44;4.07;;;3.67;;
11653;SDS011;5883;48.818;9.114;2023-08-12T02:18:30;4.13;;;3.72;;
11653;SDS011;5883;48.818;9.114;2023-08-12T02:21:15;3.40;;;3.10;;
11653;SDS011;5883;48.818;9.114;2023-08-12T02:24:02;4.03;;;3.55;;
11653;SDS011;5883;48.818;9.114;2023-08-12T02:26:47;5.78;;;3.92;;
11653;SDS011;5883;48.818;9.114;2023-08-12T02:29:32;4.57;;;4.15;;
11653;SDS011;5883;48.818;9.114;2023-08-12T02:32:19;5.60;;;3.40;;
11653;SDS011;5883;48.818;9.114;2023-08-12T02:35:05;4.15;;;3.60;;
11653;SDS011;5883;48.818;9.114;2023-08-12T02:37:50;5.97;;;3.70;;
11653;SDS011;5883;48.818;9.114;2023-08-12T02:40:35;4.45;;;3.42;;
11653;SDS011;5883;48.818;9.114;2023-08-12T02:43:20;3.60;;;3.30;;
11653;SDS011;5883;48.818;9.114;2023-08-12T02:46:08;4.28;;;3.50;;
11653;SDS011;5883;48.818;9.114;2023-08-12T02:48:54;4.22;;;3.80;;
11653;SDS011;5883;48.818;9.114;2023-08-12T02:51:41;4.03;;;3.55;;
11653;SDS011;5883;48.818;9.114;2023-08-12T02:54:26;6.18;;;4.05;;
11653;SDS011;5883;48.818;9.114;2023-08-12T02:57:14;7.15;;;4.30;;
11653;SDS011;5883;48.818;9.114;2023-08-12T02:59:59;5.25;;;4.30;;
11653;SDS011;5883;48.818;9.114;2023-08-12T03:02:44;6.32;;;4.30;;
11653;SDS011;5883;48.818;9.114;2023-08-12T03:05:42;8.00;;;4.13;;
11653;SDS011;5883;48.818;9.114;2023-08-12T03:08:30;6.03;;;4.32;;
11653;SDS011;5883;48.818;9.114;2023-08-12T03:11:15;4.35;;;3.85;;
11653;SDS011;5883;48.818;9.114;2023-08-12T03:14:02;4.35;;;3.95;;
11653;SDS011;5883;48.818;9.114;2023-08-12T03:16:47;6.20;;;3.65;;
11653;SDS011;5883;48.818;9.114;2023-08-12T03:19:32;4.40;;;3.75;;
11653;SDS011;5883;48.818;9.114;2023-08-12T03:22:19;4.53;;;3.55;;
11653;SDS011;5883;48.818;9.114;2023-08-12T03:25:04;4.22;;;3.83;;
11653;SDS011;5883;48.818;9.114;2023-08-12T03:27:51;6.40;;;3.83;;
11653;SDS011;5883;48.818;9.114;2023-08-12T03:30:36;5.63;;;3.90;;
11653;SDS011;5883;48.818;9.114;2023-08-12T03:33:21;5.57;;;4.28;;
11653;SDS011;5883;48.818;9.114;2023-08-12T03:36:06;4.03;;;3.63;;
11653;SDS011;5883;48.818;9.114;2023-08-12T03:38:52;5.13;;;3.67;;
11653;SDS011;5883;48.818;9.114;2023-08-12T03:41:37;5.82;;;4.00;;
11653;SDS011;5883;48.818;9.114;2023-08-12T03:44:22;4.68;;;3.70;;
11653;SDS011;5883;48.818;9.114;2023-08-12T03:47:08;7.20;;;3.88;;
11653;SDS011;5883;48.818;9.114;2023-08-12T03:49:53;4.50;;;3.67;;
11653;SDS011;5883;48.818;9.114;2023-08-12T03:52:38;5.68;;;3.78;;
11653;SDS011;5883;48.818;9.114;2023-08-12T03:55:25;4.68;;;3.95;;
11653;SDS011;5883;48.818;9.114;2023-08-12T03:58:10;4.35;;;3.92;;
11653;SDS011;5883;48.818;9.114;2023-08-12T04:00:58;5.95;;;3.90;;
11653;SDS011;5883;48.818;9.114;2023-08-12T04:03:43;4.35;;;3.90;;
11653;SDS011;5883;48.818;9.114;2023-08-12T04:06:29;6.43;;;4.18;;
11653;SDS011;5883;48.818;9.114;2023-08-12T04:09:16;3.92;;;3.42;;
11653;SDS011;5883;48.818;9.114;2023-08-12T04:12:05;4.78;;;4.28;;
11653;SDS011;5883;48.818;9.114;2023-08-12T04:14:49;5.05;;;3.83;;
11653;SDS011;5883;48.818;9.114;2023-08-12T04:17:34;7.47;;;3.58;;
11653;SDS011;5883;48.818;9.114;2023-08-12T04:20:23;4.28;;;3.88;;
11653;SDS011;5883;48.818;9.114;2023-08-12T04:23:09;3.90;;;3.60;;
11653;SDS011;5883;48.818;9.114;2023-08-12T04:25:54;5.45;;;4.03;;
11653;SDS011;5883;48.818;9.114;2023-08-12T04:28:40;5.95;;;4.15;;
11653;SDS011;5883;48.818;9.114;2023-08-12T04:31:25;5.28;;;4.05;;
11653;SDS011;5883;48.818;9.114;2023-08-12T04:34:10;7.68;;;4.53;;
11653;SDS011;5883;48.818;9.114;2023-08-12T04:36:55;4.40;;;3.63;;
11653;SDS011;5883;48.818;9.114;2023-08-12T04:39:41;9.25;;;4.07;;
11653;SDS011;5883;48.818;9.114;2023-08-12T04:42:27;5.50;;;4.38;;
11653;SDS011;5883;48.818;9.114;2023-08-12T04:45:15;4.85;;;4.00;;
11653;SDS011;5883;48.818;9.114;2023-08-12T04:48:01;4.43;;;3.40;;
11653;SDS011;5883;48.818;9.114;2023-08-12T04:50:47;7.05;;;3.80;;
11653;SDS011;5883;48.818;9.114;2023-08-12T04:53:32;3.72;;;3.35;;
11653;SDS011;5883;48.818;9.114;2023-08-12T04:56:17;4.90;;;4.13;;
11653;SDS011;5883;48.818;9.114;2023-08-12T04:59:03;7.38;;;4.40;;
11653;SDS011;5883;48.818;9.114;2023-08-12T05:01:49;4.88;;;4.05;;
11653;SDS011;5883;48.818;9.114;2023-08-12T05:04:34;8.20;;;4.07;;
11653;SDS011;5883;48.818;9.114;2023-08-12T05:07:19;4.20;;;3.80;;
11653;SDS011;5883;48.818;9.114;2023-08-12T05:10:04;4.47;;;4.07;;
11653;SDS011;5883;48.818;9.114;2023-08-12T05:12:50;7.70;;;3.60;;
11653;SDS011;5883;48.818;9.114;2023-08-12T05:15:37;5.30;;;3.95;;
11653;SDS011;5883;48.818;9.114;2023-08-12T05:18:24;3.60;;;3.25;;
11653;SDS011;5883;48.818;9.114;2023-08-12T05:21:10;3.78;;;3.33;;
11653;SDS011;5883;48.818;9.114;2023-08-12T05:23:56;3.92;;;3.53;;
11653;SDS011;5883;48.818;9.114;2023-08-12T05:26:42;8.68;;;4.55;;
11653;SDS011;5883;48.818;9.114;2023-08-12T05:29:27;5.18;;;4.07;;
11653;SDS011;5883;48.818;9.114;2023-08-12T05:32:12;6.28;;;3.60;;
11653;SDS011;5883;48.818;9.114;2023-08-12T05:34:58;7.03;;;4.50;;
11653;SDS011;5883;48.818;9.114;2023-08-12T05:37:44;5.15;;;3.92;;
11653;SDS011;5883;48.818;9.114;2023-08-12T05:40:29;4.25;;;3.83;;
11653;SDS011;5883;48.818;9.114;2023-08-12T05:43:14;6.65;;;4.30;;
11653;SDS011;5883;48.818;9.114;2023-08-12T05:45:59;4.28;;;3.80;;
11653;SDS011;5883;48.818;9.114;2023-08-12T05:48:43;11.48;;;4.10;;
11653;SDS011;5883;48.818;9.114;2023-08-12T05:51:32;5.57;;;4.38;;
11653;SDS011;5883;48.818;9.114;2023-08-12T05:54:17;4.00;;;3.60;;
11653;SDS011;5883;48.818;9.114;2023-08-12T05:57:02;4.47;;;3.85;;
11653;SDS011;5883;48.818;9.114;2023-08-12T05:59:48;6.15;;;4.40;;
11653;SDS011;5883;48.818;9.114;2023-08-12T06:02:33;5.13;;;4.07;;
11653;SDS011;5883;48.818;9.114;2023-08-12T06:05:18;6.38;;;3.90;;
11653;SDS011;5883;48.818;9.114;2023-08-12T06:08:05;9.52;;;4.38;;
11653;SDS011;5883;48.818;9.114;2023-08-12T06:10:51;4.43;;;4.00;;
11653;SDS011;5883;48.818;9.114;2023-08-12T06:13:36;5.75;;;4.25;;
11653;SDS011;5883;48.818;9.114;2023-08-12T06:16:21;4.40;;;4.00;;
11653;SDS011;5883;48.818;9.114;2023-08-12T06:19:05;4.70;;;3.63;;
11653;SDS011;5883;48.818;9.114;2023-08-12T06:21:50;3.80;;;3.50;;
11653;SDS011;5883;48.818;9.114;2023-08-12T06:24:37;6.47;;;3.40;;
11653;SDS011;5883;48.818;9.114;2023-08-12T06:27:22;5.00;;;3.45;;
11653;SDS011;5883;48.818;9.114;2023-08-12T06:30:07;5.10;;;3.85;;
11653;SDS011;5883;48.818;9.114;2023-08-12T06:32:54;4.82;;;3.78;;
11653;SDS011;5883;48.818;9.114;2023-08-12T06:35:41;3.90;;;3.50;;
11653;SDS011;5883;48.818;9.114;2023-08-12T06:38:26;4.55;;;3.75;;
11653;SDS011;5883;48.818;9.114;2023-08-12T06:41:14;4.25;;;3.85;;
11653;SDS011;5883;48.818;9.114;2023-08-12T06:43:59;5.32;;;3.45;;
11653;SDS011;5883;48.818;9.114;2023-08-12T06:46:45;4.50;;;3.15;;
11653;SDS011;5883;48.818;9.114;2023-08-12T06:49:30;3.63;;;3.33;;
11653;SDS011;5883;48.818;9.114;2023-08-12T06:52:15;4.15;;;2.55;;
11653;SDS011;5883;48.818;9.114;2023-08-12T06:55:00;5.05;;;3.00;;
11653;SDS011;5883;48.818;9.114;2023-08-12T06:57:46;3.80;;;2.97;;
11653;SDS011;5883;48.818;9.114;2023-08-12T07:00:31;7.22;;;2.42;;
11653;SDS011;5883;48.818;9.114;2023-08-12T07:03:18;4.97;;;2.70;;
11653;SDS011;5883;48.818;9.114;2023-08-12T07:06:03;2.95;;;2.33;;
11653;SDS011;5883;48.818;9.114;2023-08-12T07:08:47;7.30;;;2.58;;
11653;SDS011;5883;48.818;9.114;2023-08-12T07:11:35;4.32;;;2.55;;
11653;SDS011;5883;48.818;9.114;2023-08-12T07:14:24;3.33;;;2.65;;
11653;SDS011;5883;48.818;9.114;2023-08-12T07:17:09;2.70;;;2.50;;
11653;SDS011;5883;48.818;9.114;2023-08-12T07:19:54;4.70;;;2.80;;
11653;SDS011;5883;48.818;9.114;2023-08-12T07:22:40;3.38;;;2.58;;
11653;SDS011;5883;48.818;9.114;2023-08-12T07:25:24;3.03;;;2.60;;
11653;SDS011;5883;48.818;9.114;2023-08-12T07:28:09;3.13;;;2.38;;
11653;SDS011;5883;48.818;9.114;2023-08-12T07:30:56;3.10;;;2.30;;
11653;SDS011;5883;48.818;9.114;2023-08-12T07:33:41;6.43;;;2.67;;
11653;SDS011;5883;48.818;9.114;2023-08-12T07:36:27;4.22;;;2.33;;
11653;SDS011;5883;48.818;9.114;2023-08-12T07:39:12;5.05;;;3.05;;
11653;SDS011;5883;48.818;9.114;2023-08-12T07:41:57;4.85;;;2.80;;
11653;SDS011;5883;48.818;9.114;2023-08-12T07:44:44;4.90;;;2.70;;
11653;SDS011;5883;48.818;9.114;2023-08-12T07:47:30;3.38;;;2.00;;
11653;SDS011;5883;48.818;9.114;2023-08-12T07:50:15;3.55;;;2.20;;
11653;SDS011;5883;48.818;9.114;2023-08-12T07:53:00;3.90;;;2.20;;
11653;SDS011;5883;48.818;9.114;2023-08-12T07:55:45;2.28;;;2.05;;
11653;SDS011;5883;48.818;9.114;2023-08-12T07:58:31;3.10;;;2.40;;
11653;SDS011;5883;48.818;9.114;2023-08-12T08:01:19;3.63;;;2.28;;
11653;SDS011;5883;48.818;9.114;2023-08-12T08:04:07;3.58;;;2.38;;
11653;SDS011;5883;48.818;9.114;2023-08-12T08:06:52;4.47;;;1.90;;
11653;SDS011;5883;48.818;9.114;2023-08-12T08:09:37;2.65;;;2.38;;
11653;SDS011;5883;48.818;9.114;2023-08-12T08:12:23;2.55;;;2.00;;
11653;SDS011;5883;48.818;9.114;2023-08-12T08:15:09;2.95;;;2.00;;
11653;SDS011;5883;48.818;9.114;2023-08-12T08:17:54;3.33;;;2.15;;
11653;SDS011;5883;48.818;9.114;2023-08-12T08:20:42;2.67;;;2.15;;
11653;SDS011;5883;48.818;9.114;2023-08-12T08:23:29;3.50;;;2.35;;
11653;SDS011;5883;48.818;9.114;2023-08-12T08:26:14;3.80;;;2.25;;
11653;SDS011;5883;48.818;9.114;2023-08-12T08:29:00;2.72;;;2.25;;
11653;SDS011;5883;48.818;9.114;2023-08-12T08:31:46;3.65;;;2.42;;
11653;SDS011;5883;48.818;9.114;2023-08-12T08:34:32;5.18;;;2.17;;
11653;SDS011;5883;48.818;9.114;2023-08-12T08:37:21;4.13;;;2.60;;
11653;SDS011;5883;48.818;9.114;2023-08-12T08:40:07;3.35;;;2.22;;
11653;SDS011;5883;48.818;9.114;2023-08-12T08:42:53;5.50;;;3.33;;
11653;SDS011;5883;48.818;9.114;2023-08-12T08:45:38;3.58;;;2.25;;
11653;SDS011;5883;48.818;9.114;2023-08-12T08:48:23;5.00;;;2.08;;
11653;SDS011;5883;48.818;9.114;2023-08-12T08:51:10;2.22;;;1.98;;
11653;SDS011;5883;48.818;9.114;2023-08-12T08:53:57;5.93;;;2.38;;
11653;SDS011;5883;48.818;9.114;2023-08-12T08:56:42;2.25;;;2.05;;
11653;SDS011;5883;48.818;9.114;2023-08-12T08:59:27;3.13;;;2.40;;
11653;SDS011;5883;48.818;9.114;2023-08-12T09:02:14;5.57;;;2.25;;
11653;SDS011;5883;48.818;9.114;2023-08-12T09:05:01;2.63;;;2.42;;
11653;SDS011;5883;48.818;9.114;2023-08-12T09:07:47;2.05;;;1.88;;
11653;SDS011;5883;48.818;9.114;2023-08-12T09:10:33;2.45;;;2.25;;
11653;SDS011;5883;48.818;9.114;2023-08-12T09:13:19;2.17;;;1.98;;
11653;SDS011;5883;48.818;9.114;2023-08-12T09:16:05;2.50;;;2.30;;
11653;SDS011;5883;48.818;9.114;2023-08-12T09:18:54;5.55;;;2.10;;
11653;SDS011;5883;48.818;9.114;2023-08-12T09:21:40;4.22;;;2.42;;
11653;SDS011;5883;48.818;9.114;2023-08-12T09:24:26;3.10;;;2.40;;
11653;SDS011;5883;48.818;9.114;2023-08-12T09:27:18;2.92;;;2.00;;
11653;SDS011;5883;48.818;9.114;2023-08-12T09:30:03;2.55;;;2.25;;
11653;SDS011;5883;48.818;9.114;2023-08-12T09:32:57;3.83;;;2.20;;
11653;SDS011;5883;48.818;9.114;2023-08-12T09:35:42;2.72;;;2.45;;
11653;SDS011;5883;48.818;9.114;2023-08-12T09:38:28;3.53;;;2.47;;
11653;SDS011;5883;48.818;9.114;2023-08-12T09:41:14;3.22;;;2.10;;
11653;SDS011;5883;48.818;9.114;2023-08-12T09:44:04;3.83;;;1.80;;
11653;SDS011;5883;48.818;9.114;2023-08-12T09:46:58;4.68;;;2.25;;
11653;SDS011;5883;48.818;9.114;2023-08-12T09:49:43;2.15;;;1.88;;
11653;SDS011;5883;48.818;9.114;2023-08-12T09:52:29;4.45;;;2.15;;
11653;SDS011;5883;48.818;9.114;2023-08-12T09:55:15;2.08;;;1.70;;
11653;SDS011;5883;48.818;9.114;2023-08-12T09:58:03;4.25;;;1.90;;
11653;SDS011;5883;48.818;9.114;2023-08-12T10:00:52;2.58;;;1.73;;
11653;SDS011;5883;48.818;9.114;2023-08-12T10:03:44;2.85;;;1.90;;
11653;SDS011;5883;48.818;9.114;2023-08-12T10:06:35;2.40;;;2.05;;
11653;SDS011;5883;48.818;9.114;2023-08-12T10:09:20;2.92;;;1.80;;
11653;SDS011;5883;48.818;9.114;2023-08-12T10:12:07;2.85;;;1.80;;
11653;SDS011;5883;48.818;9.114;2023-08-12T10:14:52;2.97;;;1.80;;
11653;SDS011;5883;48.818;9.114;2023-08-12T10:17:39;3.28;;;1.92;;
11653;SDS011;5883;48.818;9.114;2023-08-12T10:20:25;2.65;;;2.20;;
11653;SDS011;5883;48.818;9.114;2023-08-12T10:23:12;2.83;;;1.85;;
11653;SDS011;5883;48.818;9.114;2023-08-12T10:26:01;3.63;;;1.63;;
11653;SDS011;5883;48.818;9.114;2023-08-12T10:28:48;2.78;;;1.88;;
11653;SDS011;5883;48.818;9.114;2023-08-12T10:31:33;3.42;;;1.90;;
11653;SDS011;5883;48.818;9.114;2023-08-12T10:34:22;3.50;;;2.20;;
11653;SDS011;5883;48.818;9.114;2023-08-12T10:37:08;3.00;;;1.92;;
11653;SDS011;5883;48.818;9.114;2023-08-12T10:39:54;4.22;;;1.95;;
11653;SDS011;5883;48.818;9.114;2023-08-12T10:42:43;3.65;;;2.35;;
11653;SDS011;5883;48.818;9.114;2023-08-12T10:45:40;6.20;;;2.22;;
11653;SDS011;5883;48.818;9.114;2023-08-12T10:48:28;3.72;;;2.30;;
11653;SDS011;5883;48.818;9.114;2023-08-12T10:51:14;1.98;;;1.80;;
11653;SDS011;5883;48.818;9.114;2023-08-12T10:54:09;3.25;;;1.95;;
11653;SDS011;5883;48.818;9.114;2023-08-12T10:57:05;2.90;;;1.77;;
11653;SDS011;5883;48.818;9.114;2023-08-12T10:59:53;3.28;;;2.08;;
11653;SDS011;5883;48.818;9.114;2023-08-12T11:02:44;4.25;;;1.98;;
11653;SDS011;5883;48.818;9.114;2023-08-12T11:05:35;2.90;;;2.15;;
11653;SDS011;5883;48.818;9.114;2023-08-12T11:08:25;5.43;;;2.10;;
11653;SDS011;5883;48.818;9.114;2023-08-12T11:11:18;2.78;;;2.08;;
11653;SDS011;5883;48.818;9.114;2023-08-12T11:14:05;3.70;;;1.75;;
11653;SDS011;5883;48.818;9.114;2023-08-12T11:16:55;4.72;;;2.08;;
11653;SDS011;5883;48.818;9.114;2023-08-12T11:19:41;3.10;;;2.00;;
11653;SDS011;5883;48.818;9.114;2023-08-12T11:22:26;6.80;;;1.90;;
11653;SDS011;5883;48.818;9.114;2023-08-12T11:25:14;3.00;;;2.08;;
11653;SDS011;5883;48.818;9.114;2023-08-12T11:27:59;3.83;;;2.13;;
11653;SDS011;5883;48.818;9.114;2023-08-12T11:30:45;10.48;;;1.77;;
11653;SDS011;5883;48.818;9.114;2023-08-12T11:33:32;3.20;;;1.77;;
11653;SDS011;5883;48.818;9.114;2023-08-12T11:36:17;2.90;;;1.90;;
11653;SDS011;5883;48.818;9.114;2023-08-12T11:39:02;2.15;;;1.77;;
11653;SDS011;5883;48.818;9.114;2023-08-12T11:41:54;3.17;;;1.90;;
11653;SDS011;5883;48.818;9.114;2023-08-12T11:44:41;2.50;;;2.10;;
11653;SDS011;5883;48.818;9.114;2023-08-12T11:47:26;2.92;;;2.13;;
11653;SDS011;5883;48.818;9.114;2023-08-12T11:50:14;1.67;;;1.55;;
11653;SDS011;5883;48.818;9.114;2023-08-12T11:52:59;4.70;;;2.20;;
11653;SDS011;5883;48.818;9.114;2023-08-12T11:55:44;6.78;;;3.13;;
11653;SDS011;5883;48.818;9.114;2023-08-12T11:58:36;6.68;;;2.95;;
11653;SDS011;5883;48.818;9.114;2023-08-12T12:01:21;5.45;;;2.75;;
11653;SDS011;5883;48.818;9.114;2023-08-12T12:04:09;6.82;;;2.50;;
11653;SDS011;5883;48.818;9.114;2023-08-12T12:06:54;4.28;;;2.30;;
11653;SDS011;5883;48.818;9.114;2023-08-12T12:09:42;2.58;;;1.90;;
11653;SDS011;5883;48.818;9.114;2023-08-12T12:12:27;4.03;;;2.25;;
11653;SDS011;5883;48.818;9.114;2023-08-12T12:15:14;4.13;;;2.00;;
11653;SDS011;5883;48.818;9.114;2023-08-12T12:18:02;4.00;;;2.13;;
11653;SDS011;5883;48.818;9.114;2023-08-12T12:20:54;5.78;;;2.05;;
11653;SDS011;5883;48.818;9.114;2023-08-12T12:23:41;7.05;;;2.58;;
11653;SDS011;5883;48.818;9.114;2023-08-12T12:26:26;5.35;;;2.10;;
11653;SDS011;5883;48.818;9.114;2023-08-12T12:29:15;16.42;;;3.20;;
11653;SDS011;5883;48.818;9.114;2023-08-12T12:32:01;5.32;;;2.28;;
11653;SDS011;5883;48.818;9.114;2023-08-12T12:34:46;5.05;;;2.58;;
11653;SDS011;5883;48.818;9.114;2023-08-12T12:37:37;3.67;;;2.08;;
11653;SDS011;5883;48.818;9.114;2023-08-12T12:40:24;3.83;;;2.22;;
11653;SDS011;5883;48.818;9.114;2023-08-12T12:43:11;4.38;;;2.30;;
11653;SDS011;5883;48.818;9.114;2023-08-12T12:45:58;3.33;;;2.58;;
11653;SDS011;5883;48.818;9.114;2023-08-12T12:48:44;6.07;;;2.90;;
11653;SDS011;5883;48.818;9.114;2023-08-12T12:51:31;5.72;;;2.75;;
11653;SDS011;5883;48.818;9.114;2023-08-12T12:54:16;4.72;;;2.40;;
11653;SDS011;5883;48.818;9.114;2023-08-12T12:57:04;8.52;;;3.35;;
11653;SDS011;5883;48.818;9.114;2023-08-12T12:59:53;3.88;;;2.58;;
11653;SDS011;5883;48.818;9.114;2023-08-12T13:02:37;4.63;;;3.05;;
11653;SDS011;5883;48.818;9.114;2023-08-12T13:05:24;8.45;;;4.03;;
11653;SDS011;5883;48.818;9.114;2023-08-12T13:08:10;7.82;;;3.38;;
11653;SDS011;5883;48.818;9.114;2023-08-12T13:10:55;4.93;;;3.55;;
11653;SDS011;5883;48.818;9.114;2023-08-12T13:13:41;5.20;;;3.88;;
11653;SDS011;5883;48.818;9.114;2023-08-12T13:16:28;8.27;;;4.30;;
11653;SDS011;5883;48.818;9.114;2023-08-12T13:19:13;5.93;;;4.03;;
11653;SDS011;5883;48.818;9.114;2023-08-12T13:22:00;4.40;;;3.38;;
11653;SDS011;5883;48.818;9.114;2023-08-12T13:24:48;6.13;;;3.85;;
11653;SDS011;5883;48.818;9.114;2023-08-12T13:27:33;4.82;;;3.65;;
11653;SDS011;5883;48.818;9.114;2023-08-12T13:30:20;5.65;;;4.18;;
11653;SDS011;5883;48.818;9.114;2023-08-12T13:33:05;7.22;;;3.95;;
11653;SDS011;5883;48.818;9.114;2023-08-12T13:35:50;7.30;;;3.97;;
11653;SDS011;5883;48.818;9.114;2023-08-12T13:38:41;5.07;;;4.18;;
11653;SDS011;5883;48.818;9.114;2023-08-12T13:41:26;4.55;;;3.53;;
11653;SDS011;5883;48.818;9.114;2023-08-12T13:44:11;5.07;;;3.40;;
11653;SDS011;5883;48.818;9.114;2023-08-12T13:46:57;5.60;;;3.83;;
11653;SDS011;5883;48.818;9.114;2023-08-12T13:49:42;6.63;;;3.15;;
11653;SDS011;5883;48.818;9.114;2023-08-12T13:52:27;6.57;;;2.78;;
11653;SDS011;5883;48.818;9.114;2023-08-12T13:55:13;3.67;;;2.70;;
11653;SDS011;5883;48.818;9.114;2023-08-12T13:57:59;4.60;;;3.15;;
11653;SDS011;5883;48.818;9.114;2023-08-12T14:00:44;4.18;;;3.50;;
11653;SDS011;5883;48.818;9.114;2023-08-12T14:03:29;5.15;;;3.00;;
11653;SDS011;5883;48.818;9.114;2023-08-12T14:06:16;3.88;;;2.45;;
11653;SDS011;5883;48.818;9.114;2023-08-12T14:09:08;4.28;;;3.17;;
11653;SDS011;5883;48.818;9.114;2023-08-12T14:11:59;6.30;;;3.40;;
11653;SDS011;5883;48.818;9.114;2023-08-12T14:14:44;3.80;;;3.10;;
11653;SDS011;5883;48.818;9.114;2023-08-12T14:17:29;4.10;;;2.85;;
11653;SDS011;5883;48.818;9.114;2023-08-12T14:20:14;4.05;;;2.45;;
11653;SDS011;5883;48.818;9.114;2023-08-12T14:22:59;4.15;;;3.10;;
11653;SDS011;5883;48.818;9.114;2023-08-12T14:25:46;6.55;;;2.78;;
11653;SDS011;5883;48.818;9.114;2023-08-12T14:28:32;4.50;;;2.80;;
11653;SDS011;5883;48.818;9.114;2023-08-12T14:31:19;6.28;;;3.03;;
11653;SDS011;5883;48.818;9.114;2023-08-12T14:34:04;7.55;;;3.75;;
11653;SDS011;5883;48.818;9.114;2023-08-12T14:36:50;6.05;;;3.38;;
11653;SDS011;5883;48.818;9.114;2023-08-12T14:39:35;6.85;;;3.05;;
11653;SDS011;5883;48.818;9.114;2023-08-12T14:42:20;5.45;;;2.85;;
11653;SDS011;5883;48.818;9.114;2023-08-12T14:45:08;4.32;;;3.15;;
11653;SDS011;5883;48.818;9.114;2023-08-12T14:47:53;6.50;;;3.30;;
11653;SDS011;5883;48.818;9.114;2023-08-12T14:50:38;3.97;;;3.35;;
11653;SDS011;5883;48.818;9.114;2023-08-12T14:53:25;3.95;;;2.90;;
11653;SDS011;5883;48.818;9.114;2023-08-12T14:56:12;3.95;;;3.00;;
11653;SDS011;5883;48.818;9.114;2023-08-12T14:58:57;3.78;;;2.90;;
11653;SDS011;5883;48.818;9.114;2023-08-12T15:01:43;6.57;;;2.90;;
11653;SDS011;5883;48.818;9.114;2023-08-12T15:04:29;3.53;;;2.42;;
11653;SDS011;5883;48.818;9.114;2023-08-12T15:07:14;3.58;;;2.00;;
11653;SDS011;5883;48.818;9.114;2023-08-12T15:10:00;2.33;;;2.13;;
11653;SDS011;5883;48.818;9.114;2023-08-12T15:12:45;8.95;;;2.17;;
11653;SDS011;5883;48.818;9.114;2023-08-12T15:15:30;6.22;;;2.72;;
11653;SDS011;5883;48.818;9.114;2023-08-12T15:18:17;4.68;;;2.50;;
11653;SDS011;5883;48.818;9.114;2023-08-12T15:21:04;3.58;;;2.67;;
11653;SDS011;5883;48.818;9.114;2023-08-12T15:23:48;4.03;;;2.78;;
11653;SDS011;5883;48.818;9.114;2023-08-12T15:26:34;3.13;;;2.20;;
11653;SDS011;5883;48.818;9.114;2023-08-12T15:29:19;4.13;;;2.80;;
11653;SDS011;5883;48.818;9.114;2023-08-12T15:32:09;3.70;;;2.65;;
11653;SDS011;5883;48.818;9.114;2023-08-12T15:34:59;4.47;;;3.00;;
11653;SDS011;5883;48.818;9.114;2023-08-12T15:37:45;4.28;;;2.50;;
11653;SDS011;5883;48.818;9.114;2023-08-12T15:40:30;3.75;;;2.35;;
11653;SDS011;5883;48.818;9.114;2023-08-12T15:43:15;3.47;;;2.70;;
11653;SDS011;5883;48.818;9.114;2023-08-12T15:46:00;6.53;;;2.97;;
11653;SDS011;5883;48.818;9.114;2023-08-12T15:48:49;3.50;;;2.92;;
11653;SDS011;5883;48.818;9.114;2023-08-12T15:51:35;4.93;;;3.85;;
11653;SDS011;5883;48.818;9.114;2023-08-12T15:54:23;6.45;;;5.75;;
11653;SDS011;5883;48.818;9.114;2023-08-12T15:57:09;3.17;;;2.85;;
11653;SDS011;5883;48.818;9.114;2023-08-12T15:59:55;3.08;;;2.80;;
11653;SDS011;5883;48.818;9.114;2023-08-12T16:02:39;4.20;;;3.63;;
11653;SDS011;5883;48.818;9.114;2023-08-12T16:05:24;4.03;;;3.22;;
11653;SDS011;5883;48.818;9.114;2023-08-12T16:08:11;4.85;;;3.80;;
11653;SDS011;5883;48.818;9.114;2023-08-12T16:10:57;6.53;;;4.72;;
11653;SDS011;5883;48.818;9.114;2023-08-12T16:13:43;5.75;;;3.70;;
11653;SDS011;5883;48.818;9.114;2023-08-12T16:16:28;5.38;;;3.60;;
11653;SDS011;5883;48.818;9.114;2023-08-12T16:19:13;5.40;;;3.90;;
11653;SDS011;5883;48.818;9.114;2023-08-12T16:21:58;6.25;;;3.85;;
11653;SDS011;5883;48.818;9.114;2023-08-12T16:24:46;4.40;;;3.90;;
11653;SDS011;5883;48.818;9.114;2023-08-12T16:27:31;3.90;;;2.60;;
11653;SDS011;5883;48.818;9.114;2023-08-12T16:30:16;5.25;;;3.00;;
11653;SDS011;5883;48.818;9.114;2023-08-12T16:33:02;5.95;;;2.95;;
11653;SDS011;5883;48.818;9.114;2023-08-12T16:35:48;3.17;;;2.45;;
11653;SDS011;5883;48.818;9.114;2023-08-12T16:38:33;3.10;;;2.80;;
11653;SDS011;5883;48.818;9.114;2023-08-12T16:41:20;3.85;;;2.88;;
11653;SDS011;5883;48.818;9.114;2023-08-12T16:44:06;5.63;;;2.97;;
11653;SDS011;5883;48.818;9.114;2023-08-12T16:46:51;4.00;;;2.85;;
11653;SDS011;5883;48.818;9.114;2023-08-12T16:49:37;2.70;;;2.45;;
11653;SDS011;5883;48.818;9.114;2023-08-12T16:52:22;4.20;;;2.83;;
11653;SDS011;5883;48.818;9.114;2023-08-12T16:55:07;2.65;;;2.40;;
11653;SDS011;5883;48.818;9.114;2023-08-12T16:57:56;4.82;;;2.60;;